Time;durP1;ratioP1;P1;durP2;ratioP2;P2;SDS_P1;SDS_P2;PMS_P1;PMS_P2;Temp;Humidity;BMP_temperature;BMP_pressure;BME280_temperature;BME280_humidity;BME280_pressure;Samples;Min_cycle;Max_cycle;Signal;HPM_P1;HPM_P2
2022/05/31 00:00:16;;;;;;;4.70;2.60;;;;;;;5.63;82.34;96975.91;5066698;28;20049;-62
2022/05/31 00:02:44;;;;;;;5.63;2.45;;;;;;;5.38;84.77;96980.38;5065850;28;20048;-62
2022/05/31 00:05:11;;;;;;;7.13;2.58;;;;;;;5.66;83.08;96975.44;5066644;28;20044;-62
2022/05/31 00:07:39;;;;;;;7.75;2.50;;;;;;;5.77;82.73;96968.44;5066347;28;20553;-63
2022/05/31 00:10:08;;;;;;;5.28;2.60;;;;;;;5.75;81.63;96973.25;5061681;28;20451;-62
2022/05/31 00:12:35;;;;;;;5.65;2.78;;;;;;;5.73;81.82;96963.56;5066009;28;20415;-62
2022/05/31 00:15:04;;;;;;;6.82;2.58;;;;;;;5.70;82.30;96974.75;5066695;28;20412;-63
2022/05/31 00:17:30;;;;;;;5.72;2.80;;;;;;;5.59;83.13;96962.09;5046207;28;20049;-62
2022/05/31 00:19:57;;;;;;;4.88;2.72;;;;;;;5.49;83.21;96968.03;5059473;28;20519;-62
2022/05/31 00:22:26;;;;;;;5.05;2.70;;;;;;;5.51;83.54;96965.09;5059884;28;20527;-63
2022/05/31 00:24:54;;;;;;;4.78;2.70;;;;;;;5.53;82.79;96958.47;5063944;28;20057;-62
2022/05/31 00:27:24;;;;;;;4.72;2.70;;;;;;;5.58;84.58;96961.31;5064949;28;20593;-62
2022/05/31 00:29:51;;;;;;;4.95;3.05;;;;;;;5.61;82.55;96957.34;5066424;28;20098;-63
2022/05/31 00:32:22;;;;;;;5.82;2.63;;;;;;;5.37;83.67;96962.63;5063298;28;20052;-62
2022/05/31 00:34:51;;;;;;;9.50;3.05;;;;;;;5.37;83.79;96959.09;5065563;28;20040;-62
2022/05/31 00:37:19;;;;;;;6.38;2.65;;;;;;;5.41;83.68;96953.06;5065041;28;20036;-63
2022/05/31 00:39:46;;;;;;;5.70;2.58;;;;;;;5.57;83.24;96954.28;5065534;28;20040;-62
2022/05/31 00:42:17;;;;;;;4.25;2.80;;;;;;;5.62;82.97;96961.66;5066307;28;20055;-62
2022/05/31 00:44:44;;;;;;;5.50;2.67;;;;;;;5.65;82.58;96949.63;5062337;28;20205;-63
2022/05/31 00:47:30;;;;;;;4.53;2.80;;;;;;;5.73;81.87;96944.75;5065354;28;20050;-63
2022/05/31 00:50:02;;;;;;;5.35;2.67;;;;;;;5.78;81.46;96951.28;5065369;28;20048;-63
2022/05/31 00:52:32;;;;;;;10.32;3.70;;;;;;;5.70;82.03;96941.69;5065943;28;20040;-62
2022/05/31 00:55:08;;;;;;;4.63;2.80;;;;;;;5.59;82.56;96954.03;5063788;28;20048;-62
2022/05/31 00:57:38;;;;;;;5.43;3.13;;;;;;;5.50;82.90;96947.38;5053187;28;20086;-62
2022/05/31 01:00:12;;;;;;;5.35;2.80;;;;;;;5.40;83.22;96951.44;5064079;28;20041;-63
2022/05/31 01:02:41;;;;;;;4.25;2.35;;;;;;;5.49;83.14;96946.53;5060477;28;20044;-63
2022/05/31 01:05:10;;;;;;;5.78;2.63;;;;;;;5.54;82.95;96944.00;5068842;28;20056;-63
2022/05/31 01:07:36;;;;;;;4.10;2.60;;;;;;;5.58;82.54;96950.56;5064723;28;20051;-62
2022/05/31 01:10:06;;;;;;;6.00;2.70;;;;;;;5.45;82.83;96950.72;5056740;28;20139;-63
2022/05/31 01:12:53;;;;;;;5.72;2.60;;;;;;;5.34;83.92;96952.34;5064482;28;20056;-62
2022/05/31 01:15:42;;;;;;;4.90;2.53;;;;;;;5.34;83.63;96958.53;5059547;28;20079;-63
2022/05/31 01:18:27;;;;;;;3.92;2.42;;;;;;;5.15;84.78;96954.25;5065243;28;20051;-63
2022/05/31 01:21:23;;;;;;;3.90;2.55;;;;;;;4.96;85.21;96954.28;5049472;28;20052;-63
2022/05/31 01:24:14;;;;;;;4.65;2.63;;;;;;;4.99;85.50;96948.47;5062611;28;20653;-63
2022/05/31 01:26:53;;;;;;;4.95;3.00;;;;;;;4.88;86.18;96952.75;5063713;28;20029;-63
2022/05/31 01:29:27;;;;;;;6.40;2.85;;;;;;;4.65;86.36;96954.22;5063487;28;20048;-63
2022/05/31 01:32:00;;;;;;;4.85;2.75;;;;;;;4.68;87.12;96952.97;5063543;28;20569;-63
2022/05/31 01:34:45;;;;;;;4.35;2.80;;;;;;;4.83;87.14;96947.22;5063457;28;20033;-63
2022/05/31 01:37:11;;;;;;;5.07;2.88;;;;;;;5.03;85.99;96944.31;5064614;28;20434;-62
2022/05/31 01:39:46;;;;;;;4.80;3.00;;;;;;;5.19;85.69;96950.06;5064226;28;20044;-62
2022/05/31 01:42:22;;;;;;;5.70;2.55;;;;;;;5.37;84.40;96943.00;5064040;28;20652;-63
2022/05/31 01:44:55;;;;;;;4.30;2.42;;;;;;;5.37;83.86;96948.38;5063904;28;20105;-63
2022/05/31 01:47:22;;;;;;;5.18;2.67;;;;;;;5.42;84.16;96949.31;5062592;28;20032;-62
2022/05/31 01:49:52;;;;;;;4.32;2.53;;;;;;;5.34;83.59;96942.44;5045504;28;20549;-62
2022/05/31 01:52:20;;;;;;;5.88;2.60;;;;;;;5.23;84.44;96945.06;5063039;28;20040;-63
2022/05/31 01:54:49;;;;;;;4.30;2.53;;;;;;;5.19;84.81;96944.69;5061711;28;20526;-62
2022/05/31 01:57:17;;;;;;;4.40;2.40;;;;;;;5.16;85.00;96947.84;5057382;28;20127;-63
2022/05/31 01:59:48;;;;;;;6.82;3.10;;;;;;;5.21;84.96;96953.34;5063452;28;20048;-62
2022/05/31 02:02:17;;;;;;;4.97;2.70;;;;;;;5.27;84.63;96952.44;5061721;28;20041;-63
2022/05/31 02:04:43;;;;;;;4.43;2.50;;;;;;;5.36;83.90;96949.41;5067174;28;20522;-62
2022/05/31 02:07:21;;;;;;;3.97;2.13;;;;;;;5.36;84.03;96946.75;5061869;28;20124;-62
2022/05/31 02:09:51;;;;;;;4.70;2.53;;;;;;;5.29;84.59;96949.53;5061393;28;20040;-62
2022/05/31 02:12:32;;;;;;;4.88;2.75;;;;;;;5.30;84.68;96941.25;5062599;28;20036;-62
2022/05/31 02:15:33;;;;;;;4.65;2.42;;;;;;;5.30;84.48;96941.25;5061865;28;20111;-62
2022/05/31 02:18:18;;;;;;;6.38;2.65;;;;;;;5.33;84.53;96946.16;5058606;28;20055;-62
2022/05/31 02:21:20;;;;;;;3.50;2.30;;;;;;;5.24;84.94;96950.22;5080057;28;20502;-63
2022/05/31 02:23:48;;;;;;;4.97;2.65;;;;;;;5.11;85.42;96953.06;5053744;28;20048;-62
2022/05/31 02:26:15;;;;;;;4.07;2.50;;;;;;;5.21;85.10;96950.66;5061500;28;20458;-63
2022/05/31 02:28:42;;;;;;;5.50;2.17;;;;;;;5.35;84.13;96951.31;5063650;28;20067;-63
2022/05/31 02:31:08;;;;;;;5.25;2.55;;;;;;;5.43;83.66;96950.97;5062182;28;20039;-63
2022/05/31 02:33:35;;;;;;;4.28;2.53;;;;;;;5.34;84.28;96955.84;5067590;28;20046;-63
2022/05/31 02:36:01;;;;;;;4.68;2.42;;;;;;;5.43;83.76;96958.22;5066920;28;20407;-63
2022/05/31 02:38:28;;;;;;;5.00;2.50;;;;;;;5.43;84.01;96947.47;5067946;28;20044;-62
2022/05/31 02:40:55;;;;;;;4.15;2.42;;;;;;;5.40;84.00;96950.59;5066803;28;20140;-63
2022/05/31 02:43:21;;;;;;;4.35;2.60;;;;;;;5.43;83.97;96956.34;5065605;28;20036;-63
2022/05/31 02:45:48;;;;;;;4.25;2.40;;;;;;;5.06;84.99;96951.88;5064720;28;20048;-63
2022/05/31 02:48:14;;;;;;;5.05;2.65;;;;;;;5.02;86.02;96952.56;5065537;28;20036;-62
2022/05/31 02:50:41;;;;;;;7.68;2.92;;;;;;;4.90;86.64;96942.59;5054775;28;20044;-62
2022/05/31 02:53:08;;;;;;;5.07;2.95;;;;;;;4.86;87.09;96944.09;5065924;28;20045;-62
2022/05/31 02:55:36;;;;;;;5.10;2.80;;;;;;;4.82;86.40;96941.06;5059464;28;20048;-62
2022/05/31 02:58:21;;;;;;;6.53;3.20;;;;;;;4.85;86.46;96939.78;5066893;28;20117;-63
2022/05/31 03:01:28;;;;;;;4.47;2.75;;;;;;;4.81;86.40;96936.72;5066913;28;20051;-62
2022/05/31 03:04:18;;;;;;;6.90;2.70;;;;;;;4.78;86.39;96934.50;5060059;28;20414;-63
2022/05/31 03:06:54;;;;;;;8.38;2.83;;;;;;;4.86;86.46;96937.94;5067274;28;20446;-62
2022/05/31 03:09:21;;;;;;;4.15;2.47;;;;;;;4.99;85.81;96940.44;5067916;28;20051;-63
2022/05/31 03:11:54;;;;;;;4.47;2.67;;;;;;;5.02;85.13;96942.63;5072561;28;20064;-63
2022/05/31 03:14:41;;;;;;;6.40;3.08;;;;;;;5.01;85.29;96942.91;5067714;28;20059;-62
2022/05/31 03:17:18;;;;;;;4.10;2.55;;;;;;;5.02;85.11;96941.84;5067570;28;20032;-63
2022/05/31 03:19:54;;;;;;;4.15;2.35;;;;;;;4.97;85.65;96945.19;5060540;28;20127;-62
2022/05/31 03:22:27;;;;;;;4.80;2.70;;;;;;;4.95;85.83;96953.47;5064231;28;20053;-62
2022/05/31 03:25:01;;;;;;;3.90;2.22;;;;;;;4.99;85.77;96945.81;5059988;28;20052;-62
2022/05/31 03:27:28;;;;;;;5.80;2.95;;;;;;;4.89;86.45;96942.81;5063914;28;20822;-63
2022/05/31 03:29:58;;;;;;;7.78;2.88;;;;;;;4.86;86.50;96943.28;5070713;28;20040;-63
2022/05/31 03:32:25;;;;;;;6.72;3.10;;;;;;;4.75;87.44;96951.03;5064151;28;20135;-63
2022/05/31 03:34:52;;;;;;;5.60;3.40;;;;;;;4.82;87.31;96943.72;5065399;28;20048;-62
2022/05/31 03:37:19;;;;;;;4.75;3.10;;;;;;;4.99;86.83;96943.13;5077512;28;20048;-62
2022/05/31 03:39:46;;;;;;;6.65;3.10;;;;;;;5.06;85.83;96941.13;5062842;28;20048;-64
2022/05/31 03:42:13;;;;;;;6.90;2.97;;;;;;;5.03;85.86;96936.25;5064045;28;20135;-62
2022/05/31 03:44:40;;;;;;;6.93;3.10;;;;;;;5.09;85.29;96931.84;5062952;28;20114;-62
2022/05/31 03:47:27;;;;;;;5.13;3.15;;;;;;;5.30;85.03;96935.88;5063451;28;20049;-62
2022/05/31 03:50:12;;;;;;;4.43;2.45;;;;;;;5.30;84.36;96932.34;5062190;28;20060;-62
2022/05/31 03:52:39;;;;;;;4.72;3.05;;;;;;;5.30;84.54;96932.34;5054497;28;20135;-62
2022/05/31 03:55:06;;;;;;;5.97;3.00;;;;;;;5.34;84.62;96937.06;5063907;28;20059;-62
2022/05/31 03:57:50;;;;;;;5.20;3.00;;;;;;;5.31;85.20;96937.50;5061200;28;20045;-62
2022/05/31 04:00:32;;;;;;;5.38;3.00;;;;;;;5.29;84.68;96928.88;5062421;28;20135;-62
2022/05/31 04:03:20;;;;;;;6.40;3.22;;;;;;;5.37;84.68;96927.72;5061168;28;20036;-63
2022/05/31 04:05:50;;;;;;;6.63;2.88;;;;;;;5.37;84.71;96924.22;5065867;28;20103;-62
2022/05/31 04:08:19;;;;;;;5.25;2.88;;;;;;;5.35;84.46;96924.47;5067356;28;20035;-62
2022/05/31 04:10:47;;;;;;;5.28;2.92;;;;;;;5.27;85.30;96930.94;5072415;28;20051;-62
2022/05/31 04:13:15;;;;;;;5.45;2.78;;;;;;;5.39;85.35;96924.81;5065632;28;20041;-62
2022/05/31 04:16:06;;;;;;;6.65;2.80;;;;;;;5.57;84.44;96923.94;5070406;28;20059;-63
2022/05/31 04:18:37;;;;;;;4.93;3.08;;;;;;;5.79;83.54;96926.06;5072471;28;20044;-63
2022/05/31 04:21:06;;;;;;;4.75;2.42;;;;;;;5.94;82.66;96923.72;5066755;28;20458;-62
2022/05/31 04:26:43;;;;;;;5.75;2.67;;;;;;;6.07;83.21;96920.03;5065245;28;20508;-62
2022/05/31 04:29:28;;;;;;;5.25;2.80;;;;;;;6.04;82.67;96915.09;5062478;28;20129;-62
2022/05/31 04:32:32;;;;;;;5.45;3.33;;;;;;;6.06;82.65;96913.03;5062429;28;20048;-63
2022/05/31 04:35:14;;;;;;;5.43;2.60;;;;;;;6.17;82.11;96914.06;5071167;28;20051;-63
2022/05/31 04:37:41;;;;;;;4.90;2.90;;;;;;;5.99;83.23;96913.09;5065476;28;20033;-63
2022/05/31 04:40:14;;;;;;;7.82;3.10;;;;;;;5.99;83.45;96914.97;5051712;28;20076;-63
2022/05/31 04:42:59;;;;;;;7.25;3.17;;;;;;;6.03;83.83;96918.84;5062009;28;20062;-63
2022/05/31 04:45:49;;;;;;;8.15;3.40;;;;;;;6.16;83.61;96923.16;5056983;28;20044;-62
2022/05/31 04:48:24;;;;;;;5.68;3.03;;;;;;;6.21;83.71;96931.38;5059625;28;20040;-63
2022/05/31 04:50:53;;;;;;;5.90;3.42;;;;;;;6.31;83.57;96920.03;5057638;28;20175;-63
2022/05/31 04:53:21;;;;;;;4.95;2.90;;;;;;;6.41;83.37;96922.09;5056244;28;20040;-63
2022/05/31 04:56:09;;;;;;;4.88;3.03;;;;;;;6.52;83.16;96922.31;5062387;28;20055;-63
2022/05/31 04:58:36;;;;;;;5.38;3.25;;;;;;;6.72;82.31;96925.44;5059798;28;20028;-63
2022/05/31 05:01:06;;;;;;;4.78;2.80;;;;;;;6.86;82.22;96915.19;5060148;28;20175;-63
2022/05/31 05:03:37;;;;;;;5.53;2.92;;;;;;;7.04;81.16;96916.06;5062893;28;20229;-63
2022/05/31 05:06:06;;;;;;;4.65;2.70;;;;;;;7.27;79.98;96919.72;5073333;28;20053;-64
2022/05/31 05:08:36;;;;;;;6.38;3.47;;;;;;;7.37;80.16;96921.78;5061584;28;20039;-64
2022/05/31 05:11:05;;;;;;;3.80;2.40;;;;;;;7.56;79.21;96927.78;5073916;28;20056;-63
2022/05/31 05:13:41;;;;;;;4.53;2.67;;;;;;;7.76;79.32;96918.38;5062363;28;20044;-64
2022/05/31 05:16:28;;;;;;;6.40;2.95;;;;;;;7.81;78.88;96915.75;5064862;28;20517;-64
2022/05/31 05:18:56;;;;;;;6.80;2.67;;;;;;;7.94;78.76;96917.34;5063814;28;20102;-64
2022/05/31 05:21:22;;;;;;;4.10;2.58;;;;;;;8.20;77.11;96909.63;5063619;28;20554;-64
2022/05/31 05:23:52;;;;;;;5.55;2.80;;;;;;;8.27;76.79;96909.44;5060812;28;20097;-63
2022/05/31 05:26:27;;;;;;;5.65;2.65;;;;;;;8.41;76.77;96908.00;5055764;28;20048;-63
2022/05/31 05:32:08;;;;;;;4.63;2.67;;;;;;;8.90;75.27;96913.75;5053149;28;20419;-63
2022/05/31 05:34:37;;;;;;;4.43;2.50;;;;;;;8.94;75.16;96913.03;5076197;28;20201;-64
2022/05/31 05:37:16;;;;;;;6.35;2.60;;;;;;;8.98;78.07;96908.75;5064643;28;20116;-64
2022/05/31 05:39:44;;;;;;;6.70;2.63;;;;;;;9.06;77.64;96906.66;5061087;28;20056;-63
2022/05/31 05:42:34;;;;;;;3.88;2.63;;;;;;;9.19;77.18;96906.28;5059639;28;20056;-63
2022/05/31 05:45:04;;;;;;;5.10;2.58;;;;;;;9.36;75.13;96900.75;5063011;28;20056;-63
2022/05/31 05:47:30;;;;;;;4.82;2.40;;;;;;;9.45;74.09;96906.50;5060192;28;20067;-63
2022/05/31 05:49:57;;;;;;;6.50;2.38;;;;;;;9.70;72.42;96902.38;5059388;28;20125;-63
2022/05/31 05:52:48;;;;;;;4.88;2.78;;;;;;;10.03;72.21;96899.69;5054920;28;20518;-63
2022/05/31 05:55:38;;;;;;;4.35;2.78;;;;;;;10.42;70.34;96914.78;5055314;28;20114;-64
2022/05/31 05:58:23;;;;;;;6.40;2.15;;;;;;;10.84;67.51;96906.88;5056540;28;20502;-63
2022/05/31 06:01:14;;;;;;;3.80;2.08;;;;;;;10.91;64.22;96908.25;5071780;28;20059;-63
2022/05/31 06:04:23;;;;;;;5.00;2.22;;;;;;;11.10;65.32;96905.09;5059788;28;20044;-63
2022/05/31 06:06:54;;;;;;;;;;;;;;;11.17;64.83;96907.53;5069492;28;20058;-64
2022/05/31 06:09:22;;;;;;;3.53;2.10;;;;;;;11.37;64.36;96904.03;5064552;28;19974;-64
2022/05/31 06:11:55;;;;;;;5.00;2.45;;;;;;;11.46;63.94;96904.31;5071303;28;20044;-64
2022/05/31 06:14:27;;;;;;;8.10;2.35;;;;;;;11.52;63.88;96903.25;5069695;28;20048;-64
2022/05/31 06:17:03;;;;;;;;;;;;;;;11.43;64.99;96902.97;5066452;28;20054;-64
2022/05/31 06:19:37;;;;;;;4.70;1.80;;;;;;;11.51;65.09;96914.38;5063022;28;20409;-64
2022/05/31 06:22:05;;;;;;;5.32;2.10;;;;;;;11.61;64.98;96908.94;5066754;28;20048;-63
2022/05/31 06:24:58;;;;;;;4.65;2.10;;;;;;;11.84;63.54;96904.09;5066680;28;20065;-63
2022/05/31 06:27:57;;;;;;;5.60;1.77;;;;;;;12.11;61.43;96900.28;5051631;28;20106;-63
2022/05/31 06:30:27;;;;;;;5.45;1.98;;;;;;;12.28;60.40;96900.00;5066893;28;20052;-64
2022/05/31 06:32:54;;;;;;;3.70;1.60;;;;;;;12.33;59.07;96913.56;5067108;28;20072;-63
2022/05/31 06:35:21;;;;;;;4.38;2.00;;;;;;;12.36;59.82;96907.56;5067283;28;20113;-63
2022/05/31 06:38:02;;;;;;;5.57;1.73;;;;;;;12.44;59.82;96913.53;5070863;28;20047;-64
2022/05/31 06:40:30;;;;;;;2.85;1.45;;;;;;;12.40;60.23;96907.84;5081236;28;20044;-63
2022/05/31 06:43:15;;;;;;;5.45;1.45;;;;;;;12.52;58.57;96904.81;5067234;28;20059;-63
2022/05/31 06:45:50;;;;;;;3.40;1.40;;;;;;;12.79;57.39;96914.47;5067329;28;20041;-63
2022/05/31 06:48:17;;;;;;;2.55;1.33;;;;;;;13.07;56.48;96912.19;5076224;28;20054;-63
2022/05/31 06:51:08;;;;;;;3.20;1.40;;;;;;;13.36;55.48;96905.25;5072553;28;20048;-63
2022/05/31 06:56:50;;;;;;;2.72;1.10;;;;;;;13.89;53.41;96901.91;5068266;28;20815;-63
2022/05/31 06:59:19;;;;;;;2.53;0.98;;;;;;;13.93;53.10;96904.06;5067477;28;20056;-63
2022/05/31 07:01:47;;;;;;;3.67;1.27;;;;;;;14.04;54.05;96900.94;5066436;28;20053;-63
2022/05/31 07:04:16;;;;;;;3.80;1.65;;;;;;;14.01;52.97;96898.78;5066927;28;20044;-63
2022/05/31 07:06:43;;;;;;;2.80;1.38;;;;;;;14.17;53.24;96890.50;5064136;28;20515;-68
2022/05/31 07:09:33;;;;;;;2.30;1.40;;;;;;;14.17;52.40;96898.66;5075786;28;20835;-67
2022/05/31 07:12:11;;;;;;;2.70;1.30;;;;;;;14.22;52.43;96893.16;5063198;28;20048;-64
2022/05/31 07:14:47;;;;;;;2.53;1.45;;;;;;;14.06;52.82;96897.94;5067423;28;20594;-65
2022/05/31 07:17:46;;;;;;;3.67;1.52;;;;;;;14.13;53.54;96895.72;5065065;28;20052;-67
2022/05/31 07:20:14;;;;;;;3.95;1.38;;;;;;;14.41;52.59;96895.16;5071369;28;20049;-65
2022/05/31 07:22:41;;;;;;;4.03;2.00;;;;;;;14.80;52.90;96890.66;5068730;28;20063;-67
2022/05/31 07:25:20;;;;;;;2.58;1.30;;;;;;;14.89;50.68;96891.63;5069993;28;20051;-69
2022/05/31 07:27:53;;;;;;;3.20;1.67;;;;;;;15.06;50.55;96896.59;5073297;28;20051;-65
2022/05/31 07:30:20;;;;;;;2.92;1.25;;;;;;;15.24;51.40;96887.91;5061882;28;20044;-69
2022/05/31 07:32:48;;;;;;;3.10;1.52;;;;;;;15.22;50.14;96893.63;5061811;28;20117;-69
2022/05/31 07:35:39;;;;;;;3.03;1.30;;;;;;;15.36;50.11;96891.00;5061826;28;20056;-64
2022/05/31 07:38:09;;;;;;;3.85;1.25;;;;;;;15.43;49.65;96899.63;5080128;28;20045;-68
2022/05/31 07:40:36;;;;;;;4.47;1.30;;;;;;;15.46;49.50;96895.50;5069389;28;20125;-64
2022/05/31 07:43:03;;;;;;;2.88;1.38;;;;;;;15.51;49.82;96884.50;5066862;28;20048;-64
2022/05/31 07:45:33;;;;;;;3.28;1.38;;;;;;;15.74;49.10;96890.16;5065406;28;20052;-65
2022/05/31 07:48:00;;;;;;;2.70;1.23;;;;;;;15.78;49.32;96895.84;5064028;28;20048;-63
2022/05/31 07:50:28;;;;;;;3.85;1.40;;;;;;;16.04;49.81;96896.25;5064512;28;20047;-65
2022/05/31 07:53:18;;;;;;;3.03;1.50;;;;;;;16.35;48.24;96892.97;5060372;28;20056;-65
2022/05/31 07:55:59;;;;;;;3.65;1.40;;;;;;;16.48;48.24;96896.03;5080303;28;20078;-69
2022/05/31 07:59:04;;;;;;;3.00;1.05;;;;;;;16.37;48.57;96889.94;5049846;28;20053;-69
2022/05/31 08:01:54;;;;;;;3.10;1.50;;;;;;;16.37;47.76;96898.13;5067274;28;20147;-67
2022/05/31 08:04:39;;;;;;;2.28;1.17;;;;;;;16.75;46.91;96888.94;5070399;28;20040;-63
2022/05/31 08:07:06;;;;;;;3.38;1.17;;;;;;;16.92;47.03;96885.59;5063158;28;20041;-65
2022/05/31 08:09:32;;;;;;;3.20;1.60;;;;;;;16.89;48.21;96880.72;5062816;28;20045;-69
2022/05/31 08:11:59;;;;;;;6.45;1.30;;;;;;;17.03;47.05;96876.03;5061098;28;20044;-66
2022/05/31 08:14:25;;;;;;;4.85;1.33;;;;;;;16.79;46.77;96876.28;5067251;28;20040;-68
2022/05/31 08:16:52;;;;;;;3.55;1.30;;;;;;;16.74;46.91;96882.66;5057127;28;20044;-68
2022/05/31 08:19:19;;;;;;;3.08;1.20;;;;;;;16.94;47.67;96866.13;5062727;28;20044;-69
2022/05/31 08:21:47;;;;;;;2.70;1.10;;;;;;;16.69;45.89;96865.56;5060203;28;20044;-69
2022/05/31 08:24:13;;;;;;;4.70;1.83;;;;;;;16.79;47.52;96870.81;5062172;28;20052;-67
2022/05/31 08:27:00;;;;;;;3.42;1.40;;;;;;;16.96;46.76;96863.91;5063293;28;20059;-68
2022/05/31 08:29:28;;;;;;;3.13;1.40;;;;;;;17.10;45.59;96869.38;5061000;28;20044;-65
2022/05/31 08:31:58;;;;;;;2.22;1.10;;;;;;;17.22;45.50;96864.19;5061990;28;20426;-68
2022/05/31 08:34:29;;;;;;;5.22;2.47;;;;;;;17.54;45.59;96864.28;5065906;28;20989;-67
2022/05/31 08:36:56;;;;;;;2.28;1.27;;;;;;;17.67;45.65;96859.88;5062399;28;20519;-70
2022/05/31 08:39:23;;;;;;;5.72;1.30;;;;;;;17.96;43.87;96864.09;5048644;28;20801;-70
2022/05/31 08:41:56;;;;;;;2.08;1.10;;;;;;;18.18;44.22;96865.22;5062358;28;20044;-68
2022/05/31 08:44:38;;;;;;;4.03;1.42;;;;;;;18.43;43.37;96866.44;5062069;28;20043;-69
2022/05/31 08:47:53;;;;;;;5.47;2.92;;;;;;;18.74;42.03;96863.97;5072754;28;20043;-66
2022/05/31 08:53:19;;;;;;;2.42;1.20;;;;;;;18.68;42.24;96869.59;5061850;28;20127;-67
2022/05/31 08:58:45;;;;;;;1.77;1.00;;;;;;;19.57;39.95;96873.31;5063533;28;20086;-67
2022/05/31 09:01:16;;;;;;;5.90;1.33;;;;;;;19.97;40.93;96882.50;5050878;28;20112;-66
2022/05/31 09:03:53;;;;;;;2.53;1.33;;;;;;;19.18;40.65;96883.28;5062625;28;20040;-66
2022/05/31 09:06:28;;;;;;;5.30;1.27;;;;;;;19.14;40.71;96879.56;5061696;28;20048;-66
2022/05/31 09:09:04;;;;;;;4.25;1.27;;;;;;;19.46;43.04;96897.53;5063594;28;20395;-63
2022/05/31 09:11:42;;;;;;;3.28;1.20;;;;;;;19.57;44.02;96895.28;5060632;28;20045;-67
2022/05/31 09:14:19;;;;;;;2.47;1.38;;;;;;;19.51;44.39;96891.09;5061600;28;20048;-64
2022/05/31 09:16:56;;;;;;;3.00;1.20;;;;;;;19.40;45.17;96887.03;5070128;28;20048;-65
2022/05/31 09:19:32;;;;;;;5.47;1.65;;;;;;;19.52;44.98;96891.88;5064013;28;20047;-64
2022/05/31 09:22:03;;;;;;;3.70;1.40;;;;;;;19.80;44.90;96888.81;5061133;28;20048;-63
2022/05/31 09:24:30;;;;;;;3.70;1.58;;;;;;;19.89;44.90;96898.66;5060306;28;20538;-64
2022/05/31 09:27:20;;;;;;;2.95;1.50;;;;;;;19.48;46.53;96898.03;5060601;28;20703;-65
2022/05/31 09:29:53;;;;;;;3.35;2.05;;;;;;;19.54;46.12;96897.88;5054946;28;20070;-64
2022/05/31 09:32:38;;;;;;;5.93;1.67;;;;;;;19.44;46.04;96893.50;5055035;28;20071;-64
2022/05/31 09:35:09;;;;;;;5.25;1.77;;;;;;;19.20;43.07;96894.78;5055912;28;20056;-64
2022/05/31 09:37:54;;;;;;;4.10;1.27;;;;;;;19.58;40.20;96902.41;5060684;28;20109;-65
2022/05/31 09:40:42;;;;;;;3.60;1.20;;;;;;;19.48;39.82;96909.00;5061147;28;20107;-64
2022/05/31 09:43:30;;;;;;;2.80;1.15;;;;;;;19.73;39.71;96905.78;5057728;28;20041;-64
2022/05/31 09:46:08;;;;;;;2.78;1.40;;;;;;;19.19;41.11;96901.38;5059428;28;20144;-65
2022/05/31 09:48:47;;;;;;;2.75;1.30;;;;;;;19.21;41.74;96893.63;5059409;28;20046;-65
2022/05/31 09:51:18;;;;;;;7.95;1.65;;;;;;;19.52;40.91;96895.44;5063417;28;20662;-65
2022/05/31 09:57:07;;;;;;;4.32;1.67;;;;;;;19.42;41.74;96913.03;5056980;28;20064;-64
2022/05/31 10:00:00;;;;;;;4.40;1.60;;;;;;;19.99;41.12;96896.72;5061094;28;20055;-64
2022/05/31 10:03:04;;;;;;;7.00;1.80;;;;;;;19.15;43.88;96897.66;5048694;28;20455;-64
2022/05/31 10:05:32;;;;;;;6.82;1.88;;;;;;;19.55;43.57;96889.31;5065875;28;20043;-64
2022/05/31 10:07:59;;;;;;;7.00;1.60;;;;;;;19.79;41.58;96893.47;5066175;28;20063;-64
2022/05/31 10:10:33;;;;;;;4.50;1.42;;;;;;;19.82;40.23;96890.09;5064214;28;20692;-64
2022/05/31 10:13:09;;;;;;;6.30;1.73;;;;;;;19.80;41.48;96891.56;5053344;28;20041;-65
2022/05/31 10:15:45;;;;;;;4.53;1.77;;;;;;;19.82;39.93;96879.09;5075103;28;20055;-64
2022/05/31 10:18:28;;;;;;;4.32;1.42;;;;;;;19.53;40.70;96885.28;5060064;28;20565;-68
2022/05/31 10:21:05;;;;;;;4.10;1.85;;;;;;;19.20;42.42;96873.63;5048422;28;20069;-67
2022/05/31 10:23:39;;;;;;;3.40;1.58;;;;;;;19.48;41.39;96878.00;5056670;28;20045;-65
2022/05/31 10:26:38;;;;;;;5.57;1.35;;;;;;;19.07;38.59;96875.38;5058490;28;20056;-66
2022/05/31 10:29:33;;;;;;;2.45;1.20;;;;;;;19.82;37.36;96883.78;5061201;28;20143;-68
2022/05/31 10:32:22;;;;;;;3.17;1.00;;;;;;;20.09;37.61;96881.84;5060566;28;20139;-67
2022/05/31 10:34:48;;;;;;;3.88;1.40;;;;;;;20.51;37.82;96879.28;5054082;28;20052;-69
2022/05/31 10:37:32;;;;;;;4.03;1.48;;;;;;;20.81;37.13;96886.75;5055886;28;20044;-69
2022/05/31 10:40:22;;;;;;;4.03;1.27;;;;;;;20.82;37.14;96880.09;5047248;28;20057;-64
2022/05/31 10:42:54;;;;;;;2.20;0.95;;;;;;;20.37;37.18;96887.75;5060644;28;20048;-69
2022/05/31 10:45:26;;;;;;;2.72;1.05;;;;;;;20.12;37.24;96886.69;5070346;28;20695;-67
2022/05/31 10:47:56;;;;;;;3.17;1.10;;;;;;;20.46;35.75;96881.41;5060378;28;20048;-68
2022/05/31 10:50:39;;;;;;;2.38;1.00;;;;;;;20.56;35.43;96880.25;5065467;28;20478;-68
2022/05/31 10:53:12;;;;;;;4.22;1.08;;;;;;;20.50;36.62;96882.38;5057586;28;20606;-61
2022/05/31 10:55:53;;;;;;;2.75;1.27;;;;;;;20.57;36.93;96882.69;5063307;28;20499;-67
2022/05/31 10:58:35;;;;;;;4.05;1.45;;;;;;;20.55;36.09;96882.19;5054683;28;20098;-65
2022/05/31 11:01:23;;;;;;;2.70;1.65;;;;;;;19.80;37.78;96877.81;5068340;28;20615;-68
2022/05/31 11:04:03;;;;;;;2.05;1.20;;;;;;;19.71;38.22;96881.38;5065399;28;20086;-64
2022/05/31 11:06:37;;;;;;;4.60;1.25;;;;;;;19.84;38.79;96879.59;5058410;28;20059;-67
2022/05/31 11:12:52;;;;;;;4.57;1.55;;;;;;;19.91;36.31;96883.78;5067760;28;20056;-69
2022/05/31 11:15:58;;;;;;;7.05;1.30;;;;;;;20.27;34.47;96888.13;5064001;28;20640;-71
2022/05/31 11:18:33;;;;;;;5.72;1.70;;;;;;;19.95;33.42;96882.81;5066690;28;20090;-63
2022/05/31 11:21:09;;;;;;;2.47;1.02;;;;;;;20.57;33.23;96896.44;5067037;28;20692;-66
2022/05/31 11:24:13;;;;;;;2.50;1.10;;;;;;;21.04;33.93;96881.81;5071228;28;20563;-66
2022/05/31 11:27:07;;;;;;;2.58;1.40;;;;;;;20.53;34.81;96885.25;5063679;28;20028;-64
2022/05/31 11:30:01;;;;;;;4.43;1.10;;;;;;;21.61;33.33;96887.06;5058398;28;20032;-69
2022/05/31 11:32:31;;;;;;;3.40;1.60;;;;;;;22.11;31.39;96881.78;5059261;28;20067;-69
2022/05/31 11:35:06;;;;;;;5.65;0.90;;;;;;;21.62;33.00;96877.66;5062532;28;20048;-69
2022/05/31 11:37:59;;;;;;;2.40;1.10;;;;;;;21.25;33.64;96882.97;5065191;28;20040;-69
2022/05/31 11:40:50;;;;;;;4.13;1.10;;;;;;;21.13;33.98;96884.50;5062142;28;20063;-69
2022/05/31 11:43:36;;;;;;;;;;;;;;;21.61;34.77;96883.50;5072431;28;20049;-70
2022/05/31 11:46:15;;;;;;;5.47;2.15;;;;;;;21.29;33.13;96890.22;5062954;28;19981;-68
2022/05/31 11:48:53;;;;;;;5.07;1.02;;;;;;;21.83;31.77;96882.38;5055019;28;20137;-70
2022/05/31 11:52:08;;;;;;;3.25;1.00;;;;;;;21.78;31.62;96888.91;5062997;28;20054;-70
2022/05/31 11:55:28;;;;;;;3.95;1.10;;;;;;;22.07;30.57;96883.59;5064968;28;20036;-67
2022/05/31 11:58:20;;;;;;;2.28;1.10;;;;;;;22.52;30.80;96884.72;5058352;28;20534;-69
2022/05/31 12:00:47;;;;;;;2.35;1.00;;;;;;;22.27;30.31;96892.16;5062230;28;20549;-69
2022/05/31 12:03:21;;;;;;;2.85;1.30;;;;;;;21.92;31.21;96885.84;5063223;28;20156;-68
2022/05/31 12:06:02;;;;;;;4.63;1.20;;;;;;;21.63;31.68;96884.00;5057009;28;20127;-68
2022/05/31 12:09:00;;;;;;;3.07;1.00;;;;;;;22.42;29.93;96890.69;5066856;28;20127;-63
2022/05/31 12:11:35;;;;;;;3.35;0.95;;;;;;;21.59;30.67;96892.09;5070257;28;20650;-63
2022/05/31 12:14:04;;;;;;;1.65;0.90;;;;;;;21.87;30.82;96891.59;5063360;28;20052;-63
2022/05/31 12:16:31;;;;;;;2.80;1.40;;;;;;;21.69;30.34;96894.47;5067708;28;20044;-63
2022/05/31 12:19:07;;;;;;;2.88;1.13;;;;;;;21.24;31.78;96884.09;5066151;28;20048;-64
2022/05/31 12:21:42;;;;;;;1.88;0.88;;;;;;;21.01;30.57;96889.94;5065576;28;20794;-63
2022/05/31 12:24:15;;;;;;;5.13;1.65;;;;;;;21.03;32.11;96884.88;5070450;28;20055;-64
2022/05/31 12:26:51;;;;;;;2.05;1.17;;;;;;;21.47;32.83;96892.03;5054530;28;20072;-63
2022/05/31 12:29:28;;;;;;;7.07;1.55;;;;;;;21.16;31.77;96894.03;5062236;28;20048;-64
2022/05/31 12:32:32;;;;;;;6.57;1.10;;;;;;;20.87;32.58;96896.47;5061086;28;20048;-64
2022/05/31 12:35:02;;;;;;;8.45;1.33;;;;;;;20.85;32.38;96887.72;5067229;28;20098;-63
2022/05/31 12:38:01;;;;;;;4.45;1.02;;;;;;;21.55;31.59;96886.47;5066391;28;20502;-63
2022/05/31 12:40:34;;;;;;;2.83;1.13;;;;;;;21.58;31.23;96887.75;5072361;28;20052;-64
2022/05/31 12:43:03;;;;;;;5.10;1.10;;;;;;;21.57;32.37;96878.66;5074094;28;20052;-63